sensor_id;sensor_type;location;lat;lon;timestamp;temperature;humidity
20524;DHT22;10420;48.542;12.270;2023-04-01T00:03:36;8.00;99.90
20524;DHT22;10420;48.542;12.270;2023-04-01T00:08:37;7.90;99.90
20524;DHT22;10420;48.542;12.270;2023-04-01T00:13:38;8.00;99.90
20524;DHT22;10420;48.542;12.270;2023-04-01T00:18:39;7.90;99.90
20524;DHT22;10420;48.542;12.270;2023-04-01T00:23:39;7.90;99.90
20524;DHT22;10420;48.542;12.270;2023-04-01T00:28:40;8.00;99.90
20524;DHT22;10420;48.542;12.270;2023-04-01T00:33:41;7.90;99.90
20524;DHT22;10420;48.542;12.270;2023-04-01T00:38:42;7.90;99.90
20524;DHT22;10420;48.542;12.270;2023-04-01T00:43:45;7.90;99.90
20524;DHT22;10420;48.542;12.270;2023-04-01T00:48:48;7.80;99.90
20524;DHT22;10420;48.542;12.270;2023-04-01T00:53:53;7.80;99.90
20524;DHT22;10420;48.542;12.270;2023-04-01T00:58:59;7.80;99.90
20524;DHT22;10420;48.542;12.270;2023-04-01T01:04:01;7.70;99.90
20524;DHT22;10420;48.542;12.270;2023-04-01T01:19:55;7.80;99.90
20524;DHT22;10420;48.542;12.270;2023-04-01T01:25:15;7.80;99.90
20524;DHT22;10420;48.542;12.270;2023-04-01T01:30:49;7.80;99.90
20524;DHT22;10420;48.542;12.270;2023-04-01T01:35:53;7.70;99.90
20524;DHT22;10420;48.542;12.270;2023-04-01T01:40:56;7.60;99.90
20524;DHT22;10420;48.542;12.270;2023-04-01T01:46:00;7.40;99.90
20524;DHT22;10420;48.542;12.270;2023-04-01T01:51:04;7.40;99.90
20524;DHT22;10420;48.542;12.270;2023-04-01T01:56:05;7.40;99.90
20524;DHT22;10420;48.542;12.270;2023-04-01T02:01:24;7.50;99.90
20524;DHT22;10420;48.542;12.270;2023-04-01T02:06:29;7.50;99.90
20524;DHT22;10420;48.542;12.270;2023-04-01T02:11:55;7.50;99.90
20524;DHT22;10420;48.542;12.270;2023-04-01T02:17:24;7.50;99.90
20524;DHT22;10420;48.542;12.270;2023-04-01T02:22:29;7.50;99.90
20524;DHT22;10420;48.542;12.270;2023-04-01T02:27:32;7.50;99.90
20524;DHT22;10420;48.542;12.270;2023-04-01T02:32:34;7.40;99.90
20524;DHT22;10420;48.542;12.270;2023-04-01T02:37:35;7.40;99.90
20524;DHT22;10420;48.542;12.270;2023-04-01T02:42:36;7.40;99.90
20524;DHT22;10420;48.542;12.270;2023-04-01T02:47:37;7.40;99.90
20524;DHT22;10420;48.542;12.270;2023-04-01T02:52:37;7.40;99.90
20524;DHT22;10420;48.542;12.270;2023-04-01T02:57:38;7.30;99.90
20524;DHT22;10420;48.542;12.270;2023-04-01T03:02:39;7.20;99.90
20524;DHT22;10420;48.542;12.270;2023-04-01T03:07:40;7.20;99.90
20524;DHT22;10420;48.542;12.270;2023-04-01T03:12:40;7.20;99.90
20524;DHT22;10420;48.542;12.270;2023-04-01T03:17:42;7.30;99.90
20524;DHT22;10420;48.542;12.270;2023-04-01T03:22:43;7.30;99.90
20524;DHT22;10420;48.542;12.270;2023-04-01T03:27:43;7.30;99.90
20524;DHT22;10420;48.542;12.270;2023-04-01T03:32:45;7.50;99.90
20524;DHT22;10420;48.542;12.270;2023-04-01T03:37:45;7.50;99.90
20524;DHT22;10420;48.542;12.270;2023-04-01T03:42:46;7.60;99.90
20524;DHT22;10420;48.542;12.270;2023-04-01T03:47:46;7.50;99.90
20524;DHT22;10420;48.542;12.270;2023-04-01T03:52:47;7.50;99.90
20524;DHT22;10420;48.542;12.270;2023-04-01T03:57:48;7.40;99.90
20524;DHT22;10420;48.542;12.270;2023-04-01T04:02:48;7.20;99.90
20524;DHT22;10420;48.542;12.270;2023-04-01T04:07:50;7.20;99.90
20524;DHT22;10420;48.542;12.270;2023-04-01T04:12:51;7.40;99.90
20524;DHT22;10420;48.542;12.270;2023-04-01T04:17:52;7.40;99.90
20524;DHT22;10420;48.542;12.270;2023-04-01T04:22:52;7.50;99.90
20524;DHT22;10420;48.542;12.270;2023-04-01T04:27:53;7.50;99.90
20524;DHT22;10420;48.542;12.270;2023-04-01T04:32:54;7.40;99.90
20524;DHT22;10420;48.542;12.270;2023-04-01T04:37:54;7.50;99.90
20524;DHT22;10420;48.542;12.270;2023-04-01T04:42:55;7.30;99.90
20524;DHT22;10420;48.542;12.270;2023-04-01T04:47:56;7.20;99.90
20524;DHT22;10420;48.542;12.270;2023-04-01T04:52:57;7.10;99.90
20524;DHT22;10420;48.542;12.270;2023-04-01T04:57:57;7.00;99.90
20524;DHT22;10420;48.542;12.270;2023-04-01T05:02:58;6.90;99.90
20524;DHT22;10420;48.542;12.270;2023-04-01T05:07:58;6.90;99.90
20524;DHT22;10420;48.542;12.270;2023-04-01T05:12:59;7.00;99.90
20524;DHT22;10420;48.542;12.270;2023-04-01T05:18:00;7.10;99.90
20524;DHT22;10420;48.542;12.270;2023-04-01T05:23:01;7.30;99.90
20524;DHT22;10420;48.542;12.270;2023-04-01T05:28:01;7.60;99.90
20524;DHT22;10420;48.542;12.270;2023-04-01T05:33:02;7.50;99.90
20524;DHT22;10420;48.542;12.270;2023-04-01T05:38:03;7.50;99.90
20524;DHT22;10420;48.542;12.270;2023-04-01T05:43:04;7.70;99.90
20524;DHT22;10420;48.542;12.270;2023-04-01T05:48:05;7.70;99.90
20524;DHT22;10420;48.542;12.270;2023-04-01T05:53:05;10.30;99.90
20524;DHT22;10420;48.542;12.270;2023-04-01T05:58:06;10.40;99.90
20524;DHT22;10420;48.542;12.270;2023-04-01T06:03:07;9.90;99.90
20524;DHT22;10420;48.542;12.270;2023-04-01T06:08:16;8.50;99.90
20524;DHT22;10420;48.542;12.270;2023-04-01T06:30:06;8.30;99.90
20524;DHT22;10420;48.542;12.270;2023-04-01T06:41:16;8.90;99.90
20524;DHT22;10420;48.542;12.270;2023-04-01T06:46:33;9.30;99.90
20524;DHT22;10420;48.542;12.270;2023-04-01T06:51:50;9.70;99.90
20524;DHT22;10420;48.542;12.270;2023-04-01T06:57:00;9.70;99.90
20524;DHT22;10420;48.542;12.270;2023-04-01T07:02:28;10.70;99.90
20524;DHT22;10420;48.542;12.270;2023-04-01T07:07:39;10.40;99.90
20524;DHT22;10420;48.542;12.270;2023-04-01T07:12:53;10.10;99.90
20524;DHT22;10420;48.542;12.270;2023-04-01T07:18:32;11.90;99.90
20524;DHT22;10420;48.542;12.270;2023-04-01T07:23:40;15.90;99.90
20524;DHT22;10420;48.542;12.270;2023-04-01T07:28:42;16.80;99.90
20524;DHT22;10420;48.542;12.270;2023-04-01T07:33:57;13.70;99.90
20524;DHT22;10420;48.542;12.270;2023-04-01T08:00:27;12.00;99.90
20524;DHT22;10420;48.542;12.270;2023-04-01T08:05:46;13.10;99.90
20524;DHT22;10420;48.542;12.270;2023-04-01T08:16:18;17.60;99.90
20524;DHT22;10420;48.542;12.270;2023-04-01T08:26:47;16.70;99.90
20524;DHT22;10420;48.542;12.270;2023-04-01T08:31:55;14.20;99.90
20524;DHT22;10420;48.542;12.270;2023-04-01T08:37:12;13.60;99.90
20524;DHT22;10420;48.542;12.270;2023-04-01T08:58:48;18.30;99.90
20524;DHT22;10420;48.542;12.270;2023-04-01T09:09:36;17.30;99.90
20524;DHT22;10420;48.542;12.270;2023-04-01T09:26:08;17.00;99.90
20524;DHT22;10420;48.542;12.270;2023-04-01T09:31:28;14.30;99.90
20524;DHT22;10420;48.542;12.270;2023-04-01T09:36:47;14.70;99.90
20524;DHT22;10420;48.542;12.270;2023-04-01T09:52:31;17.50;99.90
20524;DHT22;10420;48.542;12.270;2023-04-01T10:29:58;12.00;99.90
20524;DHT22;10420;48.542;12.270;2023-04-01T10:35:20;11.70;99.90
20524;DHT22;10420;48.542;12.270;2023-04-01T11:45:39;12.50;99.90
20524;DHT22;10420;48.542;12.270;2023-04-01T11:56:31;12.00;99.90
20524;DHT22;10420;48.542;12.270;2023-04-01T12:01:59;11.70;99.90
20524;DHT22;10420;48.542;12.270;2023-04-01T12:12:20;11.90;99.90
20524;DHT22;10420;48.542;12.270;2023-04-01T12:17:34;11.60;99.90
20524;DHT22;10420;48.542;12.270;2023-04-01T12:33:56;10.90;99.90
20524;DHT22;10420;48.542;12.270;2023-04-01T12:55:01;10.40;99.90
20524;DHT22;10420;48.542;12.270;2023-04-01T13:11:08;9.80;99.90
20524;DHT22;10420;48.542;12.270;2023-04-01T13:27:25;9.90;99.90
20524;DHT22;10420;48.542;12.270;2023-04-01T13:43:45;9.30;99.90
20524;DHT22;10420;48.542;12.270;2023-04-01T14:10:25;9.10;99.90
20524;DHT22;10420;48.542;12.270;2023-04-01T14:15:46;9.20;99.90
20524;DHT22;10420;48.542;12.270;2023-04-01T14:38:02;9.70;99.90
20524;DHT22;10420;48.542;12.270;2023-04-01T14:58:59;9.40;99.90
20524;DHT22;10420;48.542;12.270;2023-04-01T15:04:10;9.40;99.90
20524;DHT22;10420;48.542;12.270;2023-04-01T15:15:17;9.40;99.90
20524;DHT22;10420;48.542;12.270;2023-04-01T15:31:11;9.40;99.90
20524;DHT22;10420;48.542;12.270;2023-04-01T15:42:12;9.20;99.90
20524;DHT22;10420;48.542;12.270;2023-04-01T16:09:37;9.40;99.90
20524;DHT22;10420;48.542;12.270;2023-04-01T16:30:50;9.30;99.90
20524;DHT22;10420;48.542;12.270;2023-04-01T16:35:59;9.20;99.90
20524;DHT22;10420;48.542;12.270;2023-04-01T16:46:34;9.10;99.90
20524;DHT22;10420;48.542;12.270;2023-04-01T16:51:44;9.00;99.90
20524;DHT22;10420;48.542;12.270;2023-04-01T16:57:02;8.90;99.90
20524;DHT22;10420;48.542;12.270;2023-04-01T17:02:25;8.90;99.90
20524;DHT22;10420;48.542;12.270;2023-04-01T17:28:41;8.80;99.90
20524;DHT22;10420;48.542;12.270;2023-04-01T17:40:17;8.70;99.90
20524;DHT22;10420;48.542;12.270;2023-04-01T17:45:31;8.60;99.90
20524;DHT22;10420;48.542;12.270;2023-04-01T17:56:17;8.70;99.90
20524;DHT22;10420;48.542;12.270;2023-04-01T18:01:35;8.70;99.90
20524;DHT22;10420;48.542;12.270;2023-04-01T18:12:34;8.60;99.90
20524;DHT22;10420;48.542;12.270;2023-04-01T18:17:32;8.70;99.90
20524;DHT22;10420;48.542;12.270;2023-04-01T18:33:08;8.60;99.90
20524;DHT22;10420;48.542;12.270;2023-04-01T18:38:13;8.70;99.90
20524;DHT22;10420;48.542;12.270;2023-04-01T18:54:07;8.70;99.90
20524;DHT22;10420;48.542;12.270;2023-04-01T19:04:37;8.70;99.90
20524;DHT22;10420;48.542;12.270;2023-04-01T19:09:47;8.70;99.90
20524;DHT22;10420;48.542;12.270;2023-04-01T19:20:47;8.60;99.90
20524;DHT22;10420;48.542;12.270;2023-04-01T19:25:59;8.60;99.90
20524;DHT22;10420;48.542;12.270;2023-04-01T19:42:03;8.60;99.90
20524;DHT22;10420;48.542;12.270;2023-04-01T19:52:57;8.50;99.90
20524;DHT22;10420;48.542;12.270;2023-04-01T19:58:24;8.40;99.90
20524;DHT22;10420;48.542;12.270;2023-04-01T20:08:58;8.30;99.90
20524;DHT22;10420;48.542;12.270;2023-04-01T20:20:03;8.10;99.90
20524;DHT22;10420;48.542;12.270;2023-04-01T20:25:17;8.00;99.90
20524;DHT22;10420;48.542;12.270;2023-04-01T20:36:19;8.00;99.90
20524;DHT22;10420;48.542;12.270;2023-04-01T20:57:25;8.10;99.90
20524;DHT22;10420;48.542;12.270;2023-04-01T21:08:21;8.10;99.90
20524;DHT22;10420;48.542;12.270;2023-04-01T21:13:49;8.10;99.90
20524;DHT22;10420;48.542;12.270;2023-04-01T21:45:07;8.00;99.90
20524;DHT22;10420;48.542;12.270;2023-04-01T21:50:39;8.00;99.90
20524;DHT22;10420;48.542;12.270;2023-04-01T21:56:11;8.00;99.90
20524;DHT22;10420;48.542;12.270;2023-04-01T22:06:42;7.90;99.90
20524;DHT22;10420;48.542;12.270;2023-04-01T22:11:51;7.80;99.90
20524;DHT22;10420;48.542;12.270;2023-04-01T22:17:42;7.90;99.90
20524;DHT22;10420;48.542;12.270;2023-04-01T22:28:07;7.90;99.90
20524;DHT22;10420;48.542;12.270;2023-04-01T22:33:30;7.90;99.90
20524;DHT22;10420;48.542;12.270;2023-04-01T22:38:59;7.80;99.90
20524;DHT22;10420;48.542;12.270;2023-04-01T22:44:03;7.80;99.90
20524;DHT22;10420;48.542;12.270;2023-04-01T22:49:19;7.70;99.90
20524;DHT22;10420;48.542;12.270;2023-04-01T22:54:28;7.80;99.90
20524;DHT22;10420;48.542;12.270;2023-04-01T22:59:54;7.80;99.90
20524;DHT22;10420;48.542;12.270;2023-04-01T23:04:58;7.80;99.90
20524;DHT22;10420;48.542;12.270;2023-04-01T23:10:01;7.70;99.90
20524;DHT22;10420;48.542;12.270;2023-04-01T23:15:03;7.70;99.90
20524;DHT22;10420;48.542;12.270;2023-04-01T23:20:18;7.80;99.90
20524;DHT22;10420;48.542;12.270;2023-04-01T23:25:23;7.70;99.90
20524;DHT22;10420;48.542;12.270;2023-04-01T23:36:02;7.70;99.90
20524;DHT22;10420;48.542;12.270;2023-04-01T23:41:27;7.80;99.90
20524;DHT22;10420;48.542;12.270;2023-04-01T23:46:30;7.80;99.90
20524;DHT22;10420;48.542;12.270;2023-04-01T23:51:50;7.80;99.90
20524;DHT22;10420;48.542;12.270;2023-04-01T23:56:54;7.80;99.90
